Impacts TAF Board INFO
FOR SITUATIONAL AWARENESS. NOT TO BE USED FOR FLIGHT PLANNING PURPOSES.
IDs:

KMSP - Minneapolis-St Paul, MN, US

Issued at 2320 UTC 27 May 2018
Updated at 0132 UTC 28 May 2018
Potential Impact None Slight Moderate High
Time<<29/02Z 29/03Z 29/04Z 29/05Z 29/06Z 29/07Z 29/08Z 29/09Z 29/10Z 29/11Z 29/12Z 29/13Z 29/14Z
Type PRVL PRVL PRVL PRVL
VIS >6 >6 >6 >6
CIG 200 250 250 250
Cover BKN OVC OVC OVC
FltCat VFR VFR VFR VFR
WX VCSH -- -- --
WDir 180 80 80 80
WSpd 7 8 8 8
WGst -- -- -- --

Raw TAF
KMSP 272320Z 2800/2906 13007G13KT P6SM FEW200 BKN300
  FM280200 16006KT P6SM SCT250
  FM281200 25005KT P6SM BKN250
  FM281800 26007KT P6SM FEW250
  FM282200 18007KT P6SM VCSH BKN200
  FM290300 08008KT P6SM OVC250


METAR Board
Radar Display
Forecast Discussion

FOR SITUATIONAL AWARENESS. NOT TO BE USED FOR FLIGHT PLANNING PURPOSES.